< < Back
Terminal Aerodrome Forecast


Current Version              Previous Versions:   1  2  3  4  5  6  7  8  9  

Terminal Aerodrome Forecast

499
FTUS42 KJAX 251732
TAFJAX
TAF
KJAX 251732Z 2518/2618 08010KT P6SM SCT035 BKN250
     FM260100 VRB03KT P6SM VCSH SCT025 BKN040 BKN250
     FM261500 07008KT P6SM VCSH SCT025 BKN040=

Latest METAR

981
SAUS80 KWBC 261500 RRA
MTRJAX
METAR KJAX 261456Z 01005KT 10SM FEW015 FEW070 BKN250 26/24 A3002 RMK AO2
SLP166 T02560244 53002


USA.gov is the U.S. government's official web portal to all federal, state and local government web resources and services.